Fort Polk, LA (71459)

2:32 AM CST on February 07, 2016 (GMT -0600)
Pickering | | Change Station
CLOSE
Current Station
Personal Weather Station
Location: Leesville, LA
Elevation: 269 ft
Nearby Weather Stations

Elev 269 ft 31.04 °N, 93.31 °W | Updated 7 minutes ago

Clear
Clear
30.6 °F
Feels Like 31 °F
N
0.0
Wind Variable Wind from NNE

Today
High -- | Low -- °F
--% Chance of Precip.
Yesterday
High -- | Low -- °F
Precip. -- in
Pressure 30.32 in
Visibility 2.5 miles
Clouds Clear
Windchill 31 °F
Dew Point 30 °F
Humidity 99%
Rainfall 0.00 in
Snow Depth Not available.
7:01 AM 5:53 PM
Waning Crescent, 2% visible
SPECI KPOE 070823Z AUTO 34003KT 2 1/2SM BR CLR 01/01 A3032 RMK AO2 VIS 2 1/2V7
Pressure 30.32 in
Visibility 2.5 miles
Clouds Clear
Windchill 31 °F
Dew Point 30 °F
Humidity 99%
Rainfall 0.00 in
Snow Depth Not available.
7:01 AM 5:53 PM
Waning Crescent, 2% visible
SPECI KPOE 070823Z AUTO 34003KT 2 1/2SM BR CLR 01/01 A3032 RMK AO2 VIS 2 1/2V7

10-Day Weather Forecast

Almanac

Astronomy

Feb. 07, 2016 Rise Set
Actual Time
Civil Twilight
Nautical Twilight
Astronomical Twilight
Moon
Length of Visible Light
Length of Day
Tomorrow will be .
, % of the Moon is Illuminated

Today's Extremes

State Highs State Lows

Community

WunderPhotos

Upload Photos

1,891,171 photos uploaded!

WunderBlog® & News

Nearby

Air Quality

  Air Quality AQ Index Pollutant
Not available.

Snow Depth

Station Depth Elevation

Earthquake Activity

City Distance Mag. Time & Date
Minimum magnitude displayed is 2.5.

Coastal Water Temperatures

Place Temperature

Stations

Nearby Weather Stations

Station Location Temp. Windchill Dew Point Humidity Wind Precip. Elev Updated Type
                   

Watches & Warnings

There are currently no watches in effect.